Alexis Popot

Alexis Popot

Statistiques 2019

  • Courses courues : 31
  • Nb de victoires : 2
  • Nb de places : 6
  • Écart gagnant : 1
  • Réussite à la gagne : 6%
  • Réussite à la place : 19%
Musique : 0a 1a 2a 0a 5a Da 0a 4a Da 1a 3a 5a 0a 9a 9a Da 5a 6a
DateRangCatégorieAlloc.Dist.HippodromeChevalRed. KmSpé.
14/04/19 0 Trot 13 000€ 2 700m Graignes Fan d'Ourville Attelé
07/04/19 1 Trot 13 000€ 2 700m Le Mont Saint Michel Feline des Ruettes 1'16"4 Attelé
07/04/19 2 Trot 15 000€ 2 700m Le Mont Saint Michel Expresso Good 1'14"6 Attelé
04/04/19 0 Trot 18 000€ 2 850m Mauquenchy Eagle Best Attelé
04/04/19 5 Trot 25 000€ 2 875m Mauquenchy Agathe des Ruettes 1'16"2 Attelé
31/03/19 D Trot 13 000€ 2 800m Villedieu Les Poeles Espoir du Scion Attelé
31/03/19 0 Trot 11 000€ 2 800m Villedieu Les Poeles Florent d'Argent Attelé
22/03/19 4 Trot 24 000€ 2 450m Caen Emotion Bleue 1'15"4 Attelé
18/03/19 D Trot 20 000€ 2 200m Caen Emotion Bleue Attelé
17/03/19 1 Trot 20 000€ 2 800m Pontchateau Expresso Good 1'18"4 Attelé lire

Principal animateur, s'est montré le plus fort dans la phase finale.

10/03/19 3 Trot 13 000€ 2 350m Angers Feline des Ruettes 1'16"0 Attelé
03/03/19 5 Trot 15 000€ 2 825m Cholet Emotion Bleue 1'17"2 Attelé
03/03/19 0 Trot 15 000€ 2 800m Cholet Espoir du Scion Attelé
28/02/19 9 Trot 18 000€ 2 850m Mauquenchy Feline des Ruettes 1'17"5 Attelé
25/02/19 9 Trot 20 000€ 2 675m Chatillon Vent du Scion 1'19"1 Attelé
17/02/19 D Trot 13 000€ 2 850m Vire Ecclesia Attelé
15/02/19 5 Trot 18 000€ 2 700m Graignes Feline des Ruettes 1'17"7 Attelé
13/02/19 6 Trot 18 000€ 2 350m Angers Ecclesia 1'16"2 Attelé
11/02/19 9 Trot 16 000€ 3 150m Saint Brieuc Dynamic Charm 1'17"5 Attelé
10/02/19 6 Trot 13 000€ 2 925m Challans Espoir du Scion 1'18"2 Attelé
04/02/19 0 Trot 28 000€ 3 000m Chateaubriant Vent du Scion Attelé
27/01/19 4 Trot 21 000€ 3 000m Nantes Vent du Scion 1'16"0 Attelé
21/01/19 0 Trot 17 000€ 3 175m Saint Brieuc Croma du Guibel Attelé
21/01/19 9 Trot 13 000€ 3 150m Saint Brieuc Espoir du Scion 1'19"3 Attelé
21/01/19 D Trot 13 000€ 3 175m Saint Brieuc Emotion Bleue Attelé
20/01/19 3 Trot 17 000€ 3 000m Chateaubriant Darling du Coglais 1'17"5 Attelé
20/01/19 5 Trot 15 000€ 2 400m Chateaubriant Call Jack 1'16"6 Attelé
13/01/19 2 Trot 13 000€ 2 900m Argentan Emotion Bleue 1'18"1 Attelé
13/01/19 D Trot 13 000€ 2 875m Argentan Espoir du Scion Attelé
08/01/19 D Trot 31 000€ 2 700m Vincennes Expresso Good Attelé lire

Longtemps en retrait, s'est désuni dans la montée.

01/01/19 8 Trot 54 000€ 2 850m Vincennes Agathe des Ruettes 1'14"1 Attelé lire

A figuré au sein du peloton avant de terminer honorablement.

24/12/18 5 Trot 19 000€ 2 875m Argentan Eh Pepito 1'19"1 Attelé lire

Un des animateurs, a été progressivement dominé dans la ligne droite.

21/12/18 Dist Trot 32 000€ 2 850m Vincennes Expresso Good Attelé lire

Après avoir attendu, a vivement progressé dans la montée puis s'est désuni aux abords du poteau sans avoir ses aises, alors qu'il était deuxième.

17/12/18 6 Trot 30 000€ 2 975m Le Mans Agathe des Ruettes 1'16"7 Attelé
17/12/18 7 Trot 21 000€ 2 950m Le Mans Espoir du Scion 1'19"1 Attelé
16/12/18 1 Trot 19 000€ 2 750m Cabourg Feline des Ruettes 1'17"8 Attelé
11/12/18 9 Trot 40 000€ 2 750m Cabourg Agathe des Ruettes 1'13"9 Attelé lire

Après avoir figuré, n'a pu changer de rythme dans la phase finale.

09/12/18 0 Trot 25 000€ 2 825m Vire Ami du Scion Attelé
09/12/18 4 Trot 15 000€ 2 825m Vire Eh Pepito 1'19"7 Attelé
30/11/18 0 Trot 23 000€ 2 800m Chartres Dream de Saint So Attelé
27/11/18 1 Trot 20 000€ 2 850m Mauquenchy Eagle Best 1'20"2 Attelé
27/11/18 3 Trot 30 000€ 2 850m Mauquenchy Vent du Scion 1'17"2 Attelé
25/11/18 D Trot 13 000€ 2 825m Vire Eh Pepito Attelé
19/11/18 3 Trot 12 000€ 2 750m Cabourg Espoir du Scion 1'18"3 Attelé
16/11/18 0 Trot 12 000€ 2 575m Saint Brieuc Feline des Ruettes Attelé
14/11/18 0 Trot 30 000€ 2 850m Maure De Bretagne Ami du Scion Attelé
13/11/18 D Trot 24 000€ 2 750m Cabourg Emotion Bleue Attelé
12/11/18 1 Trot 12 000€ 2 825m Vire Eh Pepito 1'18"4 Attelé
11/11/18 7 Trot 25 000€ 2 700m Graignes Call Jack 1'16"1 Attelé
11/11/18 9 Trot 13 000€ 2 700m Graignes Favorite du Derby 1'21"3 Attelé